createdAt,value
2023-04-26T00:00:45.448Z,9.712997
2023-04-26T00:01:45.444Z,9.712374
2023-04-26T00:02:45.523Z,9.712136
2023-04-26T00:03:46.664Z,9.711875
2023-04-26T00:04:46.644Z,9.712304
2023-04-26T00:05:45.514Z,9.712559
2023-04-26T00:06:45.427Z,9.712806
2023-04-26T00:07:45.401Z,9.712270
2023-04-26T00:08:45.385Z,9.711946
2023-04-26T00:09:45.388Z,9.711849
2023-04-26T00:10:45.371Z,9.711817
2023-04-26T00:11:45.385Z,9.712086
2023-04-26T00:12:45.362Z,9.712111
2023-04-26T00:13:45.342Z,9.712108
2023-04-26T00:14:45.354Z,9.711981
2023-04-26T00:15:45.329Z,9.711964
2023-04-26T00:16:45.411Z,9.711948
2023-04-26T00:17:45.379Z,9.711964
2023-04-26T00:18:45.293Z,9.712015
2023-04-26T00:19:45.339Z,9.711892
2023-04-26T00:20:45.900Z,9.711783
2023-04-26T00:40:38.638Z,9.711527
2023-04-26T00:41:38.639Z,9.711667
2023-04-26T00:42:38.629Z,9.711585
2023-04-26T00:43:38.674Z,9.711607
2023-04-26T00:44:38.618Z,9.711686
2023-04-26T00:45:38.641Z,9.711710
2023-04-26T00:46:38.591Z,9.711635
2023-04-26T00:47:39.547Z,9.711699
2023-04-26T00:48:38.576Z,9.711601
2023-04-26T00:49:38.577Z,9.711622
2023-04-26T00:50:38.576Z,9.711562
2023-04-26T00:51:38.555Z,9.711546
2023-04-26T00:52:38.587Z,9.711477
2023-04-26T00:53:38.558Z,9.711662
2023-04-26T00:54:38.588Z,9.711698
2023-04-26T00:55:38.579Z,9.711814
2023-04-26T00:56:38.551Z,9.711884
2023-04-26T00:57:38.504Z,9.711559
2023-04-26T00:58:38.521Z,9.711723
2023-04-26T00:59:38.516Z,9.711700
2023-04-26T01:00:38.516Z,9.711807
2023-04-26T01:01:38.607Z,9.712029
2023-04-26T01:02:38.635Z,9.711633
2023-04-26T01:03:38.651Z,9.711903
2023-04-26T01:04:38.662Z,9.712019
2023-04-26T01:05:38.454Z,9.711944
2023-04-26T01:06:38.451Z,9.712204
2023-04-26T01:07:38.441Z,9.712619
2023-04-26T01:08:38.429Z,9.713084
2023-04-26T01:09:38.423Z,9.713349
2023-04-26T01:10:38.424Z,9.713780
2023-04-26T01:11:38.395Z,9.713741
2023-04-26T01:12:38.668Z,9.713097
2023-04-26T01:13:38.431Z,9.712835
2023-04-26T01:14:38.385Z,9.712082
2023-04-26T01:15:38.382Z,9.711404
2023-04-26T01:16:38.419Z,9.711484
2023-04-26T01:17:38.419Z,9.711672
2023-04-26T01:18:38.371Z,9.711728
2023-04-26T01:19:38.386Z,9.711717
2023-04-26T01:20:38.353Z,9.711779
2023-04-26T01:21:38.327Z,9.711889
2023-04-26T01:22:38.334Z,9.711734
2023-04-26T01:23:38.305Z,9.711767
2023-04-26T01:24:38.316Z,9.711737
2023-04-26T01:25:38.305Z,9.711652
2023-04-26T01:26:39.040Z,9.711574
2023-04-26T01:27:40.133Z,9.711547
2023-04-26T01:28:38.277Z,9.711545
2023-04-26T01:29:38.296Z,9.711640
2023-04-26T01:30:38.330Z,9.711557
2023-04-26T01:31:39.060Z,9.711523
2023-04-26T01:32:38.301Z,9.711561
2023-04-26T01:33:38.235Z,9.711602
2023-04-26T01:34:38.248Z,9.711562
2023-04-26T01:35:38.242Z,9.711578
2023-04-26T01:36:38.230Z,9.711519
2023-04-26T01:37:38.220Z,9.711602
2023-04-26T01:38:38.195Z,9.711682
2023-04-26T01:39:38.189Z,9.711726
2023-04-26T01:40:38.196Z,9.711637
2023-04-26T01:41:38.183Z,9.711648
2023-04-26T01:42:38.148Z,9.711658
2023-04-26T01:43:38.160Z,9.711766
2023-04-26T01:44:38.161Z,9.711705
2023-04-26T01:45:38.130Z,9.711901
2023-04-26T01:46:38.179Z,9.712101
2023-04-26T01:47:39.189Z,9.712158
2023-04-26T01:48:38.112Z,9.712282
2023-04-26T01:49:38.119Z,9.712292
2023-04-26T01:50:38.640Z,9.712146
2023-04-26T01:51:38.111Z,9.712343
2023-04-26T01:52:38.091Z,9.712031
2023-04-26T01:53:38.083Z,9.711595
2023-04-26T01:54:38.076Z,9.711672
2023-04-26T01:55:38.054Z,9.711740
2023-04-26T01:56:38.762Z,9.711637
2023-04-26T01:57:38.077Z,9.711620
2023-04-26T01:58:38.044Z,9.711680
2023-04-26T01:59:38.025Z,9.711669
2023-04-26T02:00:38.007Z,9.711660
2023-04-26T02:01:38.048Z,9.711659
2023-04-26T02:02:38.124Z,9.711673
2023-04-26T02:03:38.015Z,9.711664
2023-04-26T02:04:38.026Z,9.711715
2023-04-26T02:05:37.985Z,9.711709
2023-04-26T02:06:37.989Z,9.711713
2023-04-26T02:07:37.945Z,9.711757
2023-04-26T02:08:37.967Z,9.711744
2023-04-26T02:09:37.947Z,9.711720
2023-04-26T02:10:37.954Z,9.711711
2023-04-26T02:11:37.949Z,9.711731
2023-04-26T02:12:37.930Z,9.711651
2023-04-26T02:13:37.914Z,9.711638
2023-04-26T02:14:37.912Z,9.711603
2023-04-26T02:15:38.010Z,9.711563
2023-04-26T02:16:37.906Z,9.711646
2023-04-26T02:17:37.949Z,9.711606
2023-04-26T02:18:37.872Z,9.711596
2023-04-26T02:19:37.903Z,9.711694
2023-04-26T02:20:37.863Z,9.711644
2023-04-26T02:21:38.633Z,9.711672
2023-04-26T02:22:37.853Z,9.711700
2023-04-26T02:23:37.828Z,9.711649
2023-04-26T02:24:37.832Z,9.711673
2023-04-26T02:25:37.819Z,9.711699
2023-04-26T02:26:37.842Z,9.711658
2023-04-26T02:27:37.809Z,9.711663
2023-04-26T02:28:37.790Z,9.711647
2023-04-26T02:29:44.229Z,9.711624
2023-04-26T02:30:39.790Z,9.711620
2023-04-26T02:31:37.814Z,9.711619
2023-04-26T02:32:37.783Z,9.711613
2023-04-26T02:33:37.761Z,9.711665
2023-04-26T02:34:37.755Z,9.711662
2023-04-26T02:35:37.754Z,9.711651
2023-04-26T02:36:37.734Z,9.711681
2023-04-26T02:37:37.732Z,9.711609
2023-04-26T02:38:37.759Z,9.711592
2023-04-26T02:39:37.698Z,9.711604
2023-04-26T02:40:37.708Z,9.711637
2023-04-26T02:41:37.688Z,9.711555
2023-04-26T02:42:37.679Z,9.711635
2023-04-26T02:43:37.678Z,9.711663
2023-04-26T02:44:37.672Z,9.711620
2023-04-26T02:45:37.667Z,9.711613
2023-04-26T02:46:38.590Z,9.711617
2023-04-26T02:47:37.675Z,9.711600
2023-04-26T02:48:37.624Z,9.711558
2023-04-26T02:49:37.668Z,9.711598
2023-04-26T02:50:37.611Z,9.711596
2023-04-26T02:51:37.626Z,9.711542
2023-04-26T02:52:37.620Z,9.711594
2023-04-26T02:53:37.615Z,9.711522
2023-04-26T02:54:41.326Z,9.711593
2023-04-26T02:55:37.585Z,9.711618
2023-04-26T02:56:37.609Z,9.711612
2023-04-26T02:57:38.148Z,9.711543
2023-04-26T02:58:37.582Z,9.711476
2023-04-26T02:59:37.597Z,9.711490
2023-04-26T03:00:37.624Z,9.711722
2023-04-26T03:01:37.607Z,9.711756
2023-04-26T03:02:37.649Z,9.711654
2023-04-26T03:03:37.837Z,9.711727
2023-04-26T03:04:37.498Z,9.711658
2023-04-26T03:05:37.509Z,9.711478
2023-04-26T03:06:37.546Z,9.711601
2023-04-26T03:07:37.494Z,9.711611
2023-04-26T03:08:37.466Z,9.711546
2023-04-26T03:09:38.468Z,9.711640
2023-04-26T03:10:37.481Z,9.711623
2023-04-26T03:11:37.463Z,9.711562
2023-04-26T03:12:37.456Z,9.711687
2023-04-26T03:13:39.094Z,9.711887
2023-04-26T03:14:37.438Z,9.711679
2023-04-26T03:15:37.418Z,9.711618
2023-04-26T03:16:37.423Z,9.711617
2023-04-26T03:17:37.430Z,9.711651
2023-04-26T03:18:37.399Z,9.711580
2023-04-26T03:19:37.402Z,9.711555
2023-04-26T03:20:37.400Z,9.711609
2023-04-26T03:21:37.387Z,9.711652
2023-04-26T03:22:37.392Z,9.711674
2023-04-26T03:23:37.363Z,9.711613
2023-04-26T03:24:37.334Z,9.711711
2023-04-26T03:25:37.329Z,9.711825
2023-04-26T03:26:37.338Z,9.711596
2023-04-26T03:27:37.359Z,9.711637
2023-04-26T03:28:37.324Z,9.711663
2023-04-26T03:29:37.295Z,9.711543
2023-04-26T03:30:37.347Z,9.711684
2023-04-26T03:31:37.306Z,9.711766
2023-04-26T03:32:37.313Z,9.711864
2023-04-26T03:33:37.284Z,9.711734
2023-04-26T03:34:37.285Z,9.711557
2023-04-26T03:35:37.294Z,9.711486
2023-04-26T03:36:38.081Z,9.711778
2023-04-26T03:37:37.249Z,9.711611
2023-04-26T03:38:37.235Z,9.711678
2023-04-26T03:39:37.246Z,9.711761
2023-04-26T03:40:37.214Z,9.711846
2023-04-26T03:41:37.232Z,9.711716
2023-04-26T03:42:37.202Z,9.711723
2023-04-26T03:43:37.180Z,9.711774
2023-04-26T03:44:38.203Z,9.712001
2023-04-26T03:45:37.213Z,9.711865
2023-04-26T03:46:37.158Z,9.711864
2023-04-26T03:47:37.180Z,9.711940
2023-04-26T03:48:37.198Z,9.711712
2023-04-26T03:49:37.180Z,9.711717
2023-04-26T03:50:37.133Z,9.711757
2023-04-26T03:51:37.143Z,9.711651
2023-04-26T03:52:37.113Z,9.711666
2023-04-26T03:53:37.096Z,9.711703
2023-04-26T03:54:37.164Z,9.711758
2023-04-26T03:55:37.082Z,9.711755
2023-04-26T03:56:37.142Z,9.711700
2023-04-26T03:57:37.069Z,9.711741
2023-04-26T03:58:37.080Z,9.711731
2023-04-26T03:59:37.059Z,9.711633
2023-04-26T04:00:37.061Z,9.711632
2023-04-26T04:01:37.049Z,9.711642
2023-04-26T04:02:37.173Z,9.711666
2023-04-26T04:03:40.044Z,9.711624
2023-04-26T04:04:38.109Z,9.711689
2023-04-26T04:05:37.117Z,9.711709
2023-04-26T04:06:37.018Z,9.711596
2023-04-26T04:07:36.993Z,9.711598
2023-04-26T04:08:37.581Z,9.711657
2023-04-26T04:09:37.004Z,9.711687
2023-04-26T04:10:39.677Z,9.711688
2023-04-26T04:11:36.980Z,9.711657
2023-04-26T04:12:36.956Z,9.711514
2023-04-26T04:13:36.975Z,9.711610
2023-04-26T04:14:36.946Z,9.711615
2023-04-26T04:15:37.037Z,9.711648
2023-04-26T04:16:37.050Z,9.711575
2023-04-26T04:17:38.542Z,9.711593
2023-04-26T04:18:37.917Z,9.711647
2023-04-26T04:19:36.894Z,9.711611
2023-04-26T04:20:37.572Z,9.711649
2023-04-26T04:21:36.896Z,9.711682
2023-04-26T04:22:36.887Z,9.711599
2023-04-26T04:23:36.894Z,9.711782
2023-04-26T04:24:36.857Z,9.711745
2023-04-26T04:25:36.869Z,9.711783
2023-04-26T04:26:36.961Z,9.711776
2023-04-26T04:27:37.569Z,9.711917
2023-04-26T04:28:36.832Z,9.711653
2023-04-26T04:29:36.836Z,9.711708
2023-04-26T04:30:36.835Z,9.711701
2023-04-26T04:31:37.704Z,9.711822
2023-04-26T04:32:37.821Z,9.711751
2023-04-26T04:33:36.784Z,9.711843
2023-04-26T04:34:36.790Z,9.711989
2023-04-26T04:35:36.767Z,9.711679
2023-04-26T04:36:36.772Z,9.711485
2023-04-26T04:37:37.582Z,9.711774
2023-04-26T04:38:38.700Z,9.711952
2023-04-26T04:39:36.753Z,9.712076
2023-04-26T04:40:36.731Z,9.711951
2023-04-26T04:41:36.732Z,9.711729
2023-04-26T04:42:36.725Z,9.711764
2023-04-26T04:43:36.728Z,9.711668
2023-04-26T04:44:36.730Z,9.711872
2023-04-26T04:45:36.754Z,9.711843
2023-04-26T04:46:36.710Z,9.711707
2023-04-26T04:47:36.682Z,9.711740
2023-04-26T04:48:36.706Z,9.711203
2023-04-26T04:49:36.657Z,9.710727
2023-04-26T04:50:36.653Z,9.710644
2023-04-26T04:51:36.651Z,9.711528
2023-04-26T04:52:38.643Z,9.711531
2023-04-26T04:53:36.661Z,9.711815
2023-04-26T04:54:36.650Z,9.711761
2023-04-26T04:55:36.627Z,9.711715
2023-04-26T04:56:36.614Z,9.711511
2023-04-26T04:57:36.611Z,9.711480
2023-04-26T04:58:36.720Z,9.711582
2023-04-26T04:59:36.581Z,9.711567
2023-04-26T05:00:37.187Z,9.711518
2023-04-26T05:01:36.592Z,9.711530
2023-04-26T05:02:37.344Z,9.711345
2023-04-26T05:03:36.692Z,9.711449
2023-04-26T05:04:36.824Z,9.711492
2023-04-26T05:05:36.537Z,9.711551
2023-04-26T05:06:36.521Z,9.711487
2023-04-26T05:07:36.540Z,9.711586
2023-04-26T05:08:36.543Z,9.711596
2023-04-26T05:09:36.503Z,9.711493
2023-04-26T05:10:36.491Z,9.711434
2023-04-26T05:11:36.494Z,9.711492
2023-04-26T05:12:36.487Z,9.711530
2023-04-26T05:13:36.483Z,9.711580
2023-04-26T05:14:36.485Z,9.711536
2023-04-26T05:15:36.471Z,9.711508
2023-04-26T05:16:36.491Z,9.711588
2023-04-26T05:17:36.532Z,9.711607
2023-04-26T05:18:36.488Z,9.711662
2023-04-26T05:19:36.443Z,9.711708
2023-04-26T05:20:36.430Z,9.711676
2023-04-26T05:21:36.516Z,9.711633
2023-04-26T05:22:36.450Z,9.711611
2023-04-26T05:23:36.394Z,9.711614
2023-04-26T05:24:36.474Z,9.711576
2023-04-26T05:25:36.451Z,9.711618
2023-04-26T05:26:36.370Z,9.711706
2023-04-26T05:27:36.379Z,9.711719
2023-04-26T05:28:36.389Z,9.711604
2023-04-26T05:29:36.373Z,9.711664
2023-04-26T05:30:36.340Z,9.711749
2023-04-26T05:31:36.393Z,9.711754
2023-04-26T05:32:36.335Z,9.711690
2023-04-26T05:33:36.325Z,9.711722
2023-04-26T05:34:36.309Z,9.711809
2023-04-26T05:35:36.299Z,9.711866
2023-04-26T05:36:36.302Z,9.711823
2023-04-26T05:37:36.337Z,9.711824
2023-04-26T05:38:36.291Z,9.711887
2023-04-26T05:39:36.286Z,9.711951
2023-04-26T05:40:36.285Z,9.711923
2023-04-26T05:41:36.315Z,9.711925
2023-04-26T05:42:37.268Z,9.712100
2023-04-26T05:43:36.264Z,9.711987
2023-04-26T05:44:36.249Z,9.711955
2023-04-26T05:45:36.273Z,9.712008
2023-04-26T05:46:36.239Z,9.712116
2023-04-26T05:47:37.223Z,9.712080
2023-04-26T05:48:36.212Z,9.712041
2023-04-26T05:49:36.201Z,9.712060
2023-04-26T05:50:37.277Z,9.712000
2023-04-26T05:51:36.169Z,9.711728
2023-04-26T05:52:36.168Z,9.711920
2023-04-26T05:53:36.174Z,9.711776
2023-04-26T05:54:36.189Z,9.711905
2023-04-26T05:55:36.146Z,9.711961
2023-04-26T05:56:36.129Z,9.712064
2023-04-26T05:57:36.219Z,9.711977
2023-04-26T05:58:36.152Z,9.712367
2023-04-26T05:59:36.148Z,9.712122
2023-04-26T06:00:36.118Z,9.711754
2023-04-26T06:01:36.094Z,9.711804
2023-04-26T06:02:36.270Z,9.711778
2023-04-26T06:03:36.433Z,9.711868
2023-04-26T06:04:36.187Z,9.711852
2023-04-26T06:05:36.079Z,9.711822
2023-04-26T06:06:36.054Z,9.711864
2023-04-26T06:07:36.050Z,9.711918
2023-04-26T06:08:36.037Z,9.711802
2023-04-26T06:09:36.013Z,9.711903
2023-04-26T06:10:36.041Z,9.711984
2023-04-26T06:11:36.007Z,9.711693
2023-04-26T06:12:36.018Z,9.711788
2023-04-26T06:13:35.997Z,9.711746
2023-04-26T06:14:35.976Z,9.711662
2023-04-26T06:15:35.975Z,9.711725
2023-04-26T06:16:35.977Z,9.711829
2023-04-26T06:17:36.029Z,9.711900
2023-04-26T06:18:38.696Z,9.711999
2023-04-26T06:19:35.966Z,9.712266
2023-04-26T06:20:35.972Z,9.712068
2023-04-26T06:21:35.946Z,9.712082
2023-04-26T06:22:35.917Z,9.711970
2023-04-26T06:23:35.905Z,9.711794
2023-04-26T06:24:35.933Z,9.712060
2023-04-26T06:25:35.927Z,9.712175
2023-04-26T06:26:35.900Z,9.712087
2023-04-26T06:27:35.916Z,9.711894
2023-04-26T06:31:44.482Z,9.711862
2023-04-26T06:32:44.545Z,9.711815
2023-04-26T06:33:44.980Z,9.711851
2023-04-26T06:34:44.462Z,9.711807
2023-04-26T06:35:44.477Z,9.711830
2023-04-26T06:36:45.935Z,9.711804
2023-04-26T06:37:44.943Z,9.711848
2023-04-26T06:38:44.429Z,9.711746
2023-04-26T06:39:44.408Z,9.711818
2023-04-26T06:40:44.419Z,9.711836
2023-04-26T06:41:45.361Z,9.711890
2023-04-26T06:42:44.432Z,9.711825
2023-04-26T06:43:44.380Z,9.711887
2023-04-26T06:44:44.416Z,9.711997
2023-04-26T06:45:44.386Z,9.711794
2023-04-26T06:46:44.423Z,9.711799
2023-04-26T06:47:44.899Z,9.711697
2023-04-26T06:48:44.364Z,9.711856
2023-04-26T06:49:44.979Z,9.711854
2023-04-26T06:50:44.324Z,9.711763
2023-04-26T06:51:44.374Z,9.711739
2023-04-26T06:52:44.319Z,9.711756
2023-04-26T06:53:44.342Z,9.711637
2023-04-26T06:54:56.045Z,9.711694
2023-04-26T06:55:46.301Z,9.711723
2023-04-26T06:56:44.296Z,9.711736
2023-04-26T06:57:44.318Z,9.711808
2023-04-26T06:58:56.901Z,9.711699
2023-04-26T06:59:44.272Z,9.711808
2023-04-26T07:00:44.248Z,9.711821
2023-04-26T07:01:44.304Z,9.711787
2023-04-26T07:02:44.359Z,9.711768
2023-04-26T07:03:44.330Z,9.711773
2023-04-26T07:04:44.520Z,9.711752
2023-04-26T07:05:44.242Z,9.711801
2023-04-26T07:06:44.261Z,9.711808
2023-04-26T07:07:44.222Z,9.711742
2023-04-26T07:08:44.219Z,9.711767
2023-04-26T07:09:44.532Z,9.711719
2023-04-26T07:10:44.171Z,9.711775
2023-04-26T07:11:44.201Z,9.711815
2023-04-26T07:12:44.201Z,9.711802
2023-04-26T07:13:44.158Z,9.711794
2023-04-26T07:14:44.877Z,9.711877
2023-04-26T07:15:44.167Z,9.711835
2023-04-26T07:16:44.510Z,9.711833
2023-04-26T07:17:44.912Z,9.711844
2023-04-26T07:27:32.270Z,9.711784
2023-04-26T07:28:32.275Z,9.711849
2023-04-26T07:29:32.265Z,9.711878
2023-04-26T07:30:32.264Z,9.711935
2023-04-26T07:31:32.250Z,9.711667
2023-04-26T07:32:32.272Z,9.711709
2023-04-26T07:33:32.363Z,9.711738
2023-04-26T07:34:32.887Z,9.711798
2023-04-26T07:35:32.216Z,9.711759
2023-04-26T07:36:32.202Z,9.711771
2023-04-26T07:37:32.358Z,9.711706
2023-04-26T07:38:32.193Z,9.711668
2023-04-26T07:39:32.244Z,9.711703
2023-04-26T07:40:32.183Z,9.711710
2023-04-26T07:41:32.187Z,9.711722
2023-04-26T07:42:32.158Z,9.711720
2023-04-26T07:43:32.141Z,9.711599
2023-04-26T07:44:32.139Z,9.711606
2023-04-26T07:45:32.147Z,9.711739
2023-04-26T07:46:32.121Z,9.711537
2023-04-26T07:47:32.191Z,9.711501
2023-04-26T07:48:32.100Z,9.711491
2023-04-26T07:49:32.098Z,9.711724
2023-04-26T07:50:32.081Z,9.711586
2023-04-26T07:51:32.080Z,9.711516
2023-04-26T07:52:32.078Z,9.711382
2023-04-26T07:53:32.112Z,9.711288
2023-04-26T07:54:32.059Z,9.711358
2023-04-26T07:55:32.061Z,9.711451
2023-04-26T07:56:33.972Z,9.712509
2023-04-26T07:57:32.050Z,9.712731
2023-04-26T07:58:33.888Z,9.710309
2023-04-26T07:59:32.056Z,9.708371
2023-04-26T08:00:32.019Z,9.707790
2023-04-26T08:01:32.006Z,9.708805
2023-04-26T08:02:44.076Z,9.709986
2023-04-26T08:03:35.285Z,9.710959
2023-04-26T08:04:32.085Z,9.711690
2023-04-26T08:05:32.277Z,9.711904
2023-04-26T08:06:31.991Z,9.712287
2023-04-26T08:07:31.988Z,9.711750
2023-04-26T08:08:31.971Z,9.711414
2023-04-26T08:09:31.964Z,9.711749
2023-04-26T08:10:32.475Z,9.711810
2023-04-26T08:11:33.028Z,9.711721
2023-04-26T08:12:31.944Z,9.711756
2023-04-26T08:13:31.928Z,9.711795
2023-04-26T08:14:31.901Z,9.711730
2023-04-26T08:15:31.897Z,9.711692
2023-04-26T08:16:31.986Z,9.711630
2023-04-26T08:17:32.929Z,9.711699
2023-04-26T08:18:31.863Z,9.711642
2023-04-26T08:19:31.977Z,9.711668
2023-04-26T08:20:31.863Z,9.711694
2023-04-26T08:21:32.479Z,9.711683
2023-04-26T08:22:31.836Z,9.711672
2023-04-26T08:23:31.857Z,9.711661
2023-04-26T08:24:31.835Z,9.711699
2023-04-26T08:25:32.178Z,9.712051
2023-04-26T08:26:31.823Z,9.712124
2023-04-26T08:27:31.813Z,9.711823
2023-04-26T08:28:31.829Z,9.711806
2023-04-26T08:29:31.813Z,9.711800
2023-04-26T08:30:33.559Z,9.711723
2023-04-26T08:31:31.926Z,9.711719
2023-04-26T08:32:31.820Z,9.711703
2023-04-26T08:33:31.802Z,9.711713
2023-04-26T08:34:31.768Z,9.711694
2023-04-26T08:35:31.749Z,9.711688
2023-04-26T08:36:31.743Z,9.711706
2023-04-26T08:37:31.782Z,9.711740
2023-04-26T08:38:31.738Z,9.711722
2023-04-26T08:39:31.768Z,9.711749
2023-04-26T08:40:32.517Z,9.711686
2023-04-26T08:41:31.713Z,9.711693
2023-04-26T08:42:31.708Z,9.711691
2023-04-26T08:43:31.698Z,9.711756
2023-04-26T08:44:32.396Z,9.711695
2023-04-26T08:45:32.481Z,9.711847
2023-04-26T08:46:31.739Z,9.711824
2023-04-26T08:47:31.808Z,9.711782
2023-04-26T08:48:31.630Z,9.711839
2023-04-26T08:49:31.617Z,9.711904
2023-04-26T08:50:31.628Z,9.711921
2023-04-26T08:51:31.639Z,9.711800
2023-04-26T08:52:31.650Z,9.711761
2023-04-26T08:53:31.619Z,9.711892
2023-04-26T08:54:31.624Z,9.711891
2023-04-26T08:55:31.609Z,9.711942
2023-04-26T08:56:32.398Z,9.711863
2023-04-26T08:57:31.628Z,9.711644
2023-04-26T08:58:31.661Z,9.711850
2023-04-26T08:59:31.572Z,9.711885
2023-04-26T09:00:31.592Z,9.711827
2023-04-26T09:01:31.556Z,9.711741
2023-04-26T09:02:31.677Z,9.711736
2023-04-26T09:03:31.729Z,9.711711
2023-04-26T09:04:31.769Z,9.711359
2023-04-26T09:05:32.524Z,9.711505
2023-04-26T09:06:31.566Z,9.711422
2023-04-26T09:07:32.530Z,9.711477
2023-04-26T09:08:31.520Z,9.711439
2023-04-26T09:09:31.476Z,9.711542
2023-04-26T09:10:31.472Z,9.711387
2023-04-26T09:11:31.467Z,9.711326
2023-04-26T09:12:31.448Z,9.711576
2023-04-26T09:13:31.493Z,9.711720
2023-04-26T09:14:31.446Z,9.711818
2023-04-26T09:15:31.466Z,9.711965
2023-04-26T09:16:31.449Z,9.711852
2023-04-26T09:17:31.455Z,9.711801
2023-04-26T09:18:31.401Z,9.712061
2023-04-26T09:19:31.403Z,9.712227
2023-04-26T09:20:31.397Z,9.711779
2023-04-26T09:21:31.387Z,9.711680
2023-04-26T09:22:31.385Z,9.711462
2023-04-26T09:23:31.358Z,9.711421
2023-04-26T09:24:31.372Z,9.711296
2023-04-26T09:25:31.374Z,9.711257
2023-04-26T09:26:31.342Z,9.711505
2023-04-26T09:27:31.349Z,9.711662
2023-04-26T09:28:31.358Z,9.711744
2023-04-26T09:29:31.307Z,9.711507
2023-04-26T09:30:31.316Z,9.711506
2023-04-26T09:31:31.983Z,9.711700
2023-04-26T09:32:31.309Z,9.711682
2023-04-26T09:33:31.289Z,9.711906
2023-04-26T09:34:31.283Z,9.712014
2023-04-26T09:35:31.278Z,9.712008
2023-04-26T09:36:31.303Z,9.711738
2023-04-26T09:37:31.279Z,9.711753
2023-04-26T09:38:31.256Z,9.711843
2023-04-26T09:39:31.269Z,9.711734
2023-04-26T09:40:31.243Z,9.711701
2023-04-26T09:41:31.234Z,9.711845
2023-04-26T09:42:31.547Z,9.711906
2023-04-26T09:43:31.221Z,9.711907
2023-04-26T09:44:31.204Z,9.711938
2023-04-26T09:45:31.992Z,9.711885
2023-04-26T09:46:31.214Z,9.711914
2023-04-26T09:47:31.219Z,9.711759
2023-04-26T09:48:31.234Z,9.711547
2023-04-26T09:49:31.161Z,9.711472
2023-04-26T09:50:31.190Z,9.711557
2023-04-26T09:51:31.197Z,9.711727
2023-04-26T09:52:31.217Z,9.711597
2023-04-26T09:53:31.230Z,9.711804
2023-04-26T09:54:31.105Z,9.711762
2023-04-26T09:55:34.787Z,9.711675
2023-04-26T09:56:32.124Z,9.711625
2023-04-26T09:57:31.127Z,9.711896
2023-04-26T09:58:31.084Z,9.711738
2023-04-26T09:59:31.091Z,9.712098
2023-04-26T10:00:31.135Z,9.712419
2023-04-26T10:01:31.266Z,9.712024
2023-04-26T10:02:31.252Z,9.712089
2023-04-26T10:03:31.180Z,9.711633
2023-04-26T10:04:31.053Z,9.711619
2023-04-26T10:05:32.415Z,9.711624
2023-04-26T10:06:32.081Z,9.711597
2023-04-26T10:07:31.024Z,9.711577
2023-04-26T10:08:31.020Z,9.711621
2023-04-26T10:09:31.019Z,9.711636
2023-04-26T10:10:30.987Z,9.711643
2023-04-26T10:11:31.021Z,9.711679
2023-04-26T10:12:30.975Z,9.711672
2023-04-26T10:13:30.973Z,9.711674
2023-04-26T10:14:30.961Z,9.711662
2023-04-26T10:15:30.963Z,9.711689
2023-04-26T10:16:30.994Z,9.711648
2023-04-26T10:17:30.980Z,9.711645
2023-04-26T10:18:30.936Z,9.711675
2023-04-26T10:19:30.945Z,9.711659
2023-04-26T10:20:31.525Z,9.711685
2023-04-26T10:21:30.924Z,9.711643
2023-04-26T10:22:30.906Z,9.711693
2023-04-26T10:23:30.921Z,9.711630
2023-04-26T10:24:31.179Z,9.711578
2023-04-26T10:25:30.874Z,9.711564
2023-04-26T10:26:30.912Z,9.711651
2023-04-26T10:27:30.883Z,9.711625
2023-04-26T10:28:30.872Z,9.711582
2023-04-26T10:29:30.843Z,9.711628
2023-04-26T10:30:31.520Z,9.711653
2023-04-26T10:31:30.888Z,9.711639
2023-04-26T10:32:30.848Z,9.711662
2023-04-26T10:33:30.849Z,9.711842
2023-04-26T10:34:30.800Z,9.711732
2023-04-26T10:35:30.846Z,9.711864
2023-04-26T10:36:30.788Z,9.711967
2023-04-26T10:37:30.792Z,9.711787
2023-04-26T10:38:30.773Z,9.711698
2023-04-26T10:39:30.785Z,9.711694
2023-04-26T10:40:31.522Z,9.711643
2023-04-26T10:41:30.780Z,9.711650
2023-04-26T10:42:30.758Z,9.711625
2023-04-26T10:43:30.760Z,9.711609
2023-04-26T10:44:30.730Z,9.711701
2023-04-26T10:45:30.741Z,9.711731
2023-04-26T10:46:30.793Z,9.711682
2023-04-26T10:47:30.801Z,9.711674
2023-04-26T10:48:30.780Z,9.711636
2023-04-26T10:49:30.744Z,9.711649
2023-04-26T10:50:30.700Z,9.711657
2023-04-26T10:51:30.676Z,9.711629
2023-04-26T10:52:30.746Z,9.711641
2023-04-26T10:53:30.705Z,9.711651
2023-04-26T10:54:31.682Z,9.711620
2023-04-26T10:55:30.668Z,9.711678
2023-04-26T10:56:30.704Z,9.711649
2023-04-26T10:57:30.633Z,9.711637
2023-04-26T10:58:31.746Z,9.711650
2023-04-26T10:59:43.384Z,9.711586
2023-04-26T11:00:33.116Z,9.711587
2023-04-26T11:01:31.665Z,9.711619
2023-04-26T11:02:30.672Z,9.711596
2023-04-26T11:03:30.697Z,9.711582
2023-04-26T11:04:32.625Z,9.711569
2023-04-26T11:05:30.601Z,9.711658
2023-04-26T11:06:31.456Z,9.711571
2023-04-26T11:07:30.555Z,9.711634
2023-04-26T11:08:30.608Z,9.711631
2023-04-26T11:09:30.553Z,9.711531
2023-04-26T11:10:30.574Z,9.711517
2023-04-26T11:11:30.538Z,9.711555
2023-04-26T11:12:30.536Z,9.711571
2023-04-26T11:13:30.527Z,9.711617
2023-04-26T11:14:34.475Z,9.711654
2023-04-26T11:15:30.514Z,9.711613
2023-04-26T11:16:31.204Z,9.711603
2023-04-26T11:17:30.596Z,9.711655
2023-04-26T11:18:32.303Z,9.711678
2023-04-26T11:20:03.066Z,9.711852
2023-04-26T11:20:30.457Z,9.711398
2023-04-26T11:21:30.991Z,9.711596
2023-04-26T11:22:32.034Z,9.712000
2023-04-26T11:23:30.426Z,9.711751
2023-04-26T11:24:30.439Z,9.711495
2023-04-26T11:25:30.422Z,9.711658
2023-04-26T11:26:30.397Z,9.711884
2023-04-26T11:27:31.046Z,9.711783
2023-04-26T11:28:33.953Z,9.711575
2023-04-26T11:29:30.396Z,9.711576
2023-04-26T11:30:30.374Z,9.711713
2023-04-26T11:31:30.430Z,9.711773
2023-04-26T11:32:31.048Z,9.711651
2023-04-26T11:33:30.372Z,9.711364
2023-04-26T11:34:30.343Z,9.711575
2023-04-26T11:35:30.350Z,9.711538
2023-04-26T11:36:30.969Z,9.711789
2023-04-26T11:37:30.326Z,9.711930
2023-04-26T11:38:30.319Z,9.711872
2023-04-26T11:39:30.310Z,9.711850
2023-04-26T11:40:30.287Z,9.711857
2023-04-26T11:41:30.276Z,9.711707
2023-04-26T11:42:30.297Z,9.712029
2023-04-26T11:43:30.394Z,9.712366
2023-04-26T11:44:30.377Z,9.712277
2023-04-26T11:45:30.243Z,9.712193
2023-04-26T11:46:30.259Z,9.712491
2023-04-26T11:47:30.245Z,9.712201
2023-04-26T11:48:30.272Z,9.712677
2023-04-26T11:49:30.217Z,9.712366
2023-04-26T11:50:30.224Z,9.712102
2023-04-26T11:51:30.692Z,9.711834
2023-04-26T11:52:30.284Z,9.711805
2023-04-26T11:53:30.316Z,9.711563
2023-04-26T11:54:30.158Z,9.711983
2023-04-26T11:55:30.197Z,9.711798
2023-04-26T11:56:30.223Z,9.711730
2023-04-26T11:57:31.051Z,9.712014
2023-04-26T11:58:30.145Z,9.712141
2023-04-26T11:59:30.147Z,9.712085
2023-04-26T12:00:30.129Z,9.711976
2023-04-26T12:01:30.127Z,9.712168
2023-04-26T12:02:30.271Z,9.712362
2023-04-26T12:03:30.233Z,9.712658
2023-04-26T12:04:31.251Z,9.712125
2023-04-26T12:05:31.188Z,9.711995
2023-04-26T12:06:30.083Z,9.712125
2023-04-26T12:07:30.072Z,9.712053
2023-04-26T12:08:30.090Z,9.712419
2023-04-26T12:09:31.098Z,9.712401
2023-04-26T12:10:30.100Z,9.712066
2023-04-26T12:11:36.981Z,9.712393
2023-04-26T12:12:30.023Z,9.712162
2023-04-26T12:13:30.977Z,9.711805
2023-04-26T12:14:30.004Z,9.711609
2023-04-26T12:15:30.026Z,9.711567